This is the latest recevied weather packets stored in our database for station/object SP6RGZ-1. If no packets are shown the sender has not sent any weather packets the latest 10 day(s).
| Time | Temp. | Humidity | Pressure | Rain* | Wind** | Luminosity | Snow |
|---|---|---|---|---|---|---|---|
| 1787686202 | 15.56° C | 95% | 1000.7 hPa | - | - | - | - |
| 1787685302 | 15.56° C | 92% | 1000.7 hPa | - | - | - | - |
| 1787684402 | 16.11° C | 90% | 1000.6 hPa | - | - | - | - |
| 1787683502 | 16.11° C | 88% | 1000.6 hPa | - | - | - | - |
| 1787682602 | 16.67° C | 86% | 1000.5 hPa | - | - | - | - |
| 1787681702 | 16.67° C | 84% | 1000.5 hPa | - | - | - | - |
| 1787680802 | 17.22° C | 80% | 1000.4 hPa | - | - | - | - |
| 1787679902 | 18.33° C | 75% | 1000.3 hPa | - | - | - | - |
| 1787679002 | 18.89° C | 71% | 1000.3 hPa | - | - | - | - |
| 1787678102 | 20° C | 66% | 1000 hPa | - | - | - | - |
| 1787677202 | 21.11° C | 60% | 1000.1 hPa | - | - | - | - |
| 1787676302 | 21.67° C | 57% | 999.8 hPa | - | - | - | - |
| 1787675402 | 22.22° C | 56% | 999.8 hPa | - | - | - | - |
| 1787674502 | 21.67° C | 57% | 999.9 hPa | - | - | - | - |
| 1787673602 | 21.67° C | 57% | 999.8 hPa | - | - | - | - |
| 1787672702 | 22.22° C | 58% | 999.9 hPa | - | - | - | - |
| 1787671802 | 22.22° C | 57% | 999.8 hPa | - | - | - | - |
| 1787670902 | 22.22° C | 55% | 999.8 hPa | - | - | - | - |
| 1787670002 | 22.22° C | 55% | 999.7 hPa | - | - | - | - |
| 1787669102 | 22.22° C | 53% | 999.6 hPa | - | - | - | - |
| 1787668202 | 22.22° C | 53% | 999.6 hPa | - | - | - | - |
| 1787667302 | 22.22° C | 54% | 999.4 hPa | - | - | - | - |
| 1787666402 | 22.22° C | 55% | 999.4 hPa | - | - | - | - |
| 1787665502 | 22.22° C | 54% | 999.4 hPa | - | - | - | - |
| 1787664602 | 22.78° C | 53% | 999.3 hPa | - | - | - | - |
* Rain since midnight (hover to see other rain measurements)
** Current wind speed in m/s (hover to see current wind gust speed)